Nederlandse vliegveldverwachtingen (TAF)

Luchtvaartmeteorologische informatie voor operationeel gebruik en vluchtvoorbereiding is beschikbaar op www.luchtvaartmeteo.nl.

ZCZC
FT071700 EHLE     LELYSTAD/LELYSTAD   NLD   -3 m.
TAF EHLE 071715Z 0718/0824 28011KT 9999 SCT025
    BECMG 0718/0721 20005KT
    BECMG 0806/0809 17010KT
    BECMG 0810/0813 16017KT 7000 RA
    PROB30 TEMPO 0814/0817 4500 -DZ BKN014
    BECMG 0816/0819 19011KT 9000 NSW=

ZCZC
FT071700 EHAM     AMSTERDAM/SCHIPHOL   NLD   -3 m.
TAF EHAM 071720Z 0718/0824 27010KT 9999 SCT025
    BECMG 0718/0721 20005KT
    BECMG 0806/0809 17010KT
    BECMG 0810/0813 16017KT 7000 RA
    PROB40 TEMPO 0814/0817 4500 -DZ BKN014
    BECMG 0816/0819 19011KT 9000 NSW=

ZCZC
FT071700 EHRD     ROTTERDAM/THE HAGUE AIRPORT   NLD   -5 m.
TAF EHRD 071715Z 0718/0824 26010KT 9999 SCT025
    BECMG 0718/0721 20005KT
    BECMG 0806/0809 17010KT
    BECMG 0809/0812 16016KT 7000 RA
    PROB40 TEMPO 0813/0816 4500 -DZ BKN014
    BECMG 0815/0818 19011KT 9000 NSW=

ZCZC
FT071700 EHGG     GRONINGEN/EELDE   NLD   5 m.
TAF EHGG 071711Z 0718/0824 28012KT 9999 SCT025
    BECMG 0719/0722 23005KT
    PROB40 0800/0805 4000 BR MIFG
    BECMG 0807/0810 17013KT
    TEMPO 0814/0818 6000 RA=

ZCZC
FT071700 EHBK     MAASTRICHT/MAASTRICHT-AACHEN   NLD   114 m.
TAF EHBK 071711Z 0718/0824 27010KT 9999 FEW040
    BECMG 0718/0720 VRB03KT
    BECMG 0805/0808 18012KT=

ZCZC
FT071700 EHEH     EINDHOVEN/EINDHOVEN   NLD   22 m.
TAF EHEH 071701Z 0718/0824 28008KT 9999 FEW045
    BECMG 0720/0722 22003KT
    BECMG 0805/0807 16008KT
    TEMPO 0809/0817 17010G22KT
    PROB40 TEMPO 0811/0814 FEW018 SCT025 BKN040=

ZCZC
FC072100 EHKD     DE KOOY/DE KOOY   NLD   1 m.
TAF EHKD 072100Z NIL=

ZCZC
FC072100 EHGR     GILZE-RIJEN/GILZE-RIJEN   NLD   14 m.
TAF EHGR 072100Z NIL=

ZCZC
FC072100 EHLW     LEEUWARDEN/LEEUWARDEN   NLD   1 m.
TAF EHLW 072055Z 0721/0809 22004KT 9999 FEW022 SCT035
    PROB30 0723/0805 4500 BR MIFG
    BECMG 0806/0808 16007KT=

ZCZC
FC072100 EHVK RRA VOLKEL/VOLKEL   NLD   21 m.
TAF EHVK 072059Z 0721/0809 VRB02KT CAVOK
    PROB30 0723/0803 4500 BR MIFG
    BECMG 0805/0807 1600KT=

ZCZC
FC072100 EHWO     WOENSDRECHT/WOENSDRECHT   NLD   19 m.
TAF EHWO 072100Z NIL=

07/05/2021 23.15 uur LT